Time;durP1;ratioP1;P1;durP2;ratioP2;P2;SDS_P1;SDS_P2;PMS_P1;PMS_P2;Temp;Humidity;BMP_temperature;BMP_pressure;BME280_temperature;BME280_humidity;BME280_pressure;Samples;Min_cycle;Max_cycle;Signal;HPM_P1;HPM_P2
2022/11/27 00:00:42;;;;;;;14.10;8.73;;;;;;;5.30;80.38;102284.34;5135593;27;20550;-66
2022/11/27 00:03:08;;;;;;;9.60;8.50;;;;;;;5.31;80.34;102281.63;5135462;27;20211;-66
2022/11/27 00:05:35;;;;;;;15.80;8.17;;;;;;;5.31;80.38;102278.13;5135512;27;20640;-66
2022/11/27 00:08:01;;;;;;;12.20;9.03;;;;;;;5.34;79.72;102275.41;5135720;27;20185;-66
2022/11/27 00:10:28;;;;;;;9.10;7.97;;;;;;;5.21;80.24;102269.50;5135398;27;20191;-67
2022/11/27 00:12:54;;;;;;;10.27;7.60;;;;;;;5.10;80.23;102266.25;5135450;27;20205;-67
2022/11/27 00:15:21;;;;;;;11.70;6.40;;;;;;;5.18;80.48;102260.75;5135234;27;20185;-67
2022/11/27 00:17:47;;;;;;;29.90;6.37;;;;;;;5.23;80.39;102250.88;5135725;27;20661;-67
2022/11/27 00:20:14;;;;;;;11.17;6.70;;;;;;;5.33;79.74;102255.06;5134965;27;20558;-67
2022/11/27 00:22:40;;;;;;;7.53;6.43;;;;;;;5.40;79.64;102253.97;5135374;27;20607;-67
2022/11/27 00:25:07;;;;;;;7.33;6.73;;;;;;;5.44;79.17;102258.31;5135098;27;20655;-67
2022/11/27 00:27:33;;;;;;;6.17;5.67;;;;;;;5.43;79.23;102256.56;5135043;27;20204;-67
2022/11/27 00:30:00;;;;;;;9.57;6.20;;;;;;;5.37;79.03;102243.44;5135566;27;20271;-67
2022/11/27 00:32:26;;;;;;;6.73;4.70;;;;;;;5.44;79.16;102245.03;5134789;27;20299;-67
2022/11/27 00:34:53;;;;;;;8.80;5.33;;;;;;;5.41;78.98;102253.09;5134443;27;20685;-67
2022/11/27 00:37:19;;;;;;;6.77;5.23;;;;;;;5.33;78.82;102249.75;5134892;27;20184;-67
2022/11/27 00:39:46;;;;;;;9.13;4.90;;;;;;;5.32;79.22;102254.19;5134889;27;20556;-67
2022/11/27 00:42:12;;;;;;;5.33;4.80;;;;;;;5.29;79.34;102264.00;5135313;27;20188;-67
2022/11/27 00:44:39;;;;;;;5.87;5.17;;;;;;;5.26;79.21;102259.63;5134677;27;20557;-67
2022/11/27 00:47:05;;;;;;;5.07;4.77;;;;;;;5.27;79.25;102256.09;5134744;27;20185;-67
2022/11/27 00:49:32;;;;;;;5.47;4.97;;;;;;;5.23;79.17;102258.84;5134653;27;20188;-67
2022/11/27 00:51:58;;;;;;;12.23;5.20;;;;;;;5.20;79.13;102250.97;5134563;27;20200;-66
2022/11/27 00:54:25;;;;;;;6.40;5.70;;;;;;;5.19;79.29;102252.72;5134552;27;20210;-67
2022/11/27 00:56:51;;;;;;;6.63;4.87;;;;;;;5.18;79.19;102253.66;5134556;27;20193;-67
2022/11/27 00:59:17;;;;;;;6.40;5.83;;;;;;;5.22;79.35;102258.00;5134804;27;20184;-67
2022/11/27 01:01:45;;;;;;;6.23;5.27;;;;;;;5.19;79.08;102252.72;5134780;27;20646;-67
2022/11/27 01:04:13;;;;;;;10.50;5.27;;;;;;;5.16;79.24;102255.47;5134411;27;20208;-67
2022/11/27 01:06:41;;;;;;;6.00;5.20;;;;;;;5.24;78.75;102244.66;5134709;27;20531;-67
2022/11/27 01:09:09;;;;;;;10.70;6.30;;;;;;;5.18;79.17;102248.34;5134693;27;20245;-67
2022/11/27 01:11:36;;;;;;;13.97;7.03;;;;;;;5.27;78.57;102264.06;5135371;27;20555;-67
2022/11/27 01:14:07;;;;;;;7.03;6.40;;;;;;;5.24;78.66;102257.94;5134578;27;20205;-67
2022/11/27 01:16:34;;;;;;;14.47;6.70;;;;;;;5.23;78.96;102256.19;5134905;27;20342;-67
2022/11/27 01:19:06;;;;;;;7.07;6.37;;;;;;;5.25;78.47;102251.72;5134879;27;20645;-66
2022/11/27 01:21:33;;;;;;;6.53;6.00;;;;;;;5.20;78.80;102248.31;5134167;27;20552;-66
2022/11/27 01:24:01;;;;;;;9.33;4.90;;;;;;;5.07;78.74;102242.41;5134391;28;20211;-66
2022/11/27 01:26:28;;;;;;;12.27;6.97;;;;;;;4.96;79.59;102226.75;5135050;28;20525;-66
2022/11/27 01:28:55;;;;;;;6.53;5.93;;;;;;;4.85;79.35;102218.16;5134159;28;20180;-66
2022/11/27 01:31:25;;;;;;;6.13;5.60;;;;;;;4.82;79.19;102205.84;5134375;28;20569;-66
2022/11/27 01:33:57;;;;;;;9.50;5.20;;;;;;;4.77;79.05;102226.31;5134044;28;20253;-66
2022/11/27 01:36:24;;;;;;;5.13;4.87;;;;;;;4.71;78.94;102226.44;5134130;28;20173;-66
2022/11/27 01:38:51;;;;;;;4.80;4.60;;;;;;;4.71;79.50;102220.28;5134314;28;20195;-66
2022/11/27 01:41:17;;;;;;;6.40;4.93;;;;;;;4.73;79.62;102218.47;5134095;28;20192;-66
2022/11/27 01:43:47;;;;;;;4.83;4.10;;;;;;;4.68;79.29;102216.78;5134223;28;20204;-67
2022/11/27 01:46:38;;;;;;;8.27;5.17;;;;;;;4.69;79.36;102215.00;5136371;27;20188;-67
2022/11/27 01:49:07;;;;;;;5.87;5.37;;;;;;;4.69;79.84;102212.34;5138126;27;20180;-67
2022/11/27 01:51:40;;;;;;;8.80;4.57;;;;;;;4.65;79.35;102214.22;5138043;27;20200;-67
2022/11/27 01:54:08;;;;;;;8.23;4.90;;;;;;;4.64;79.22;102215.09;5138263;27;20211;-67
2022/11/27 01:56:35;;;;;;;4.77;4.50;;;;;;;4.62;79.85;102216.03;5138017;27;20180;-67
2022/11/27 02:03:15;;;;;;;6.23;5.70;;;;;;;4.58;80.08;102209.09;5138146;27;20226;-67
2022/11/27 02:05:41;;;;;;;8.60;4.67;;;;;;;4.60;80.40;102204.63;5138371;27;20241;-67
2022/11/27 02:08:11;;;;;;;12.03;4.63;;;;;;;4.61;79.73;102209.88;5137683;27;20200;-67
2022/11/27 02:10:48;;;;;;;5.67;5.17;;;;;;;4.63;80.14;102197.44;5138321;27;20183;-67
2022/11/27 02:13:32;;;;;;;8.73;4.60;;;;;;;4.55;79.22;102194.13;5137558;27;20577;-67
2022/11/27 02:16:28;;;;;;;12.20;4.57;;;;;;;4.48;79.43;102187.19;5137933;27;20632;-67
2022/11/27 02:19:12;;;;;;;5.03;4.47;;;;;;;4.38;79.39;102178.59;5116354;27;20655;-67
2022/11/27 02:21:53;;;;;;;5.67;5.47;;;;;;;4.39;79.85;102182.97;5137638;27;20189;-67
2022/11/27 02:24:47;;;;;;;5.40;4.90;;;;;;;4.38;79.82;102177.69;5137504;27;20208;-67
2022/11/27 02:27:35;;;;;;;9.00;5.33;;;;;;;4.37;79.90;102179.47;5137705;27;20177;-67
2022/11/27 02:30:04;;;;;;;5.60;5.10;;;;;;;4.32;79.91;102181.34;5137375;27;20176;-67
2022/11/27 02:32:39;;;;;;;5.37;5.03;;;;;;;4.24;79.38;102186.84;5137273;27;20216;-67
2022/11/27 02:35:31;;;;;;;7.73;4.60;;;;;;;4.23;80.13;102184.22;5137322;27;20175;-67
2022/11/27 02:38:09;;;;;;;5.67;5.47;;;;;;;4.25;79.92;102175.31;5137551;27;20169;-67
2022/11/27 02:40:51;;;;;;;7.57;4.60;;;;;;;4.23;80.20;102173.59;5137770;27;20531;-67
2022/11/27 02:43:23;;;;;;;4.60;4.50;;;;;;;4.16;79.79;102162.25;5137511;27;20211;-67
2022/11/27 02:45:51;;;;;;;5.00;4.80;;;;;;;4.08;79.95;102166.84;5137452;27;20181;-67
2022/11/27 02:48:21;;;;;;;5.27;5.03;;;;;;;4.00;79.64;102151.13;5137300;27;20200;-67
2022/11/27 02:50:50;;;;;;;4.53;3.80;;;;;;;3.92;79.87;102144.22;5137026;27;20176;-67
2022/11/27 02:53:29;;;;;;;4.87;4.60;;;;;;;3.84;79.98;102142.63;5136764;27;20223;-67
2022/11/27 02:55:58;;;;;;;7.17;4.83;;;;;;;3.75;80.22;102144.59;5136372;27;20187;-67
2022/11/27 02:58:28;;;;;;;5.67;5.47;;;;;;;3.67;80.25;102142.09;5137120;27;20199;-67
2022/11/27 03:00:56;;;;;;;12.17;5.03;;;;;;;3.68;80.78;102135.00;5136754;27;20183;-67
2022/11/27 03:03:28;;;;;;;8.90;5.50;;;;;;;3.63;80.07;102132.47;5136641;27;20209;-67
2022/11/27 03:06:00;;;;;;;6.43;5.97;;;;;;;3.54;81.15;102130.00;5136723;27;20191;-67
2022/11/27 03:08:40;;;;;;;5.10;4.90;;;;;;;3.46;80.89;102126.63;5137223;27;20173;-66
2022/11/27 03:11:09;;;;;;;7.27;5.50;;;;;;;3.44;81.04;102120.50;5136927;27;20178;-66
2022/11/27 03:13:38;;;;;;;7.40;5.83;;;;;;;3.41;81.77;102117.00;5136702;27;20215;-66
2022/11/27 03:16:36;;;;;;;7.30;6.43;;;;;;;3.33;81.72;102113.63;5136779;27;20181;-66
2022/11/27 03:19:20;;;;;;;7.70;6.10;;;;;;;3.29;81.36;102103.13;5136443;27;20172;-66
2022/11/27 03:21:57;;;;;;;7.20;5.53;;;;;;;3.21;81.91;102098.00;5136373;27;20207;-66
2022/11/27 03:24:24;;;;;;;7.37;6.40;;;;;;;3.24;82.42;102095.28;5136315;27;20208;-66
2022/11/27 03:26:50;;;;;;;5.80;5.23;;;;;;;3.24;82.44;102089.97;5136612;27;20197;-66
2022/11/27 03:29:34;;;;;;;6.63;5.50;;;;;;;3.30;82.31;102092.50;5136254;27;20191;-66
2022/11/27 03:32:01;;;;;;;6.80;6.27;;;;;;;3.30;83.36;102099.56;5136436;27;20262;-66
2022/11/27 03:34:28;;;;;;;7.17;6.67;;;;;;;3.37;83.00;102103.84;5136085;27;20202;-66
2022/11/27 03:36:54;;;;;;;12.57;7.43;;;;;;;3.45;82.51;102099.28;5136345;27;20194;-66
2022/11/27 03:39:22;;;;;;;7.27;6.60;;;;;;;3.51;82.34;102103.56;5136327;27;20570;-66
2022/11/27 03:42:21;;;;;;;11.83;6.43;;;;;;;3.66;81.79;102105.03;5135942;27;20189;-66
2022/11/27 03:45:18;;;;;;;7.27;6.77;;;;;;;3.65;81.57;102105.94;5079877;27;20697;-66
2022/11/27 03:47:56;;;;;;;10.77;9.43;;;;;;;3.65;81.39;102120.06;5136149;27;20184;-66
2022/11/27 03:50:28;;;;;;;9.13;6.43;;;;;;;3.67;80.98;102112.09;5135836;27;20184;-67
2022/11/27 03:53:16;;;;;;;9.13;8.50;;;;;;;3.65;81.06;102111.25;5136152;27;20196;-66
2022/11/27 03:55:52;;;;;;;8.90;6.20;;;;;;;3.56;80.58;102107.00;5135729;27;20175;-66
2022/11/27 03:58:36;;;;;;;6.63;6.03;;;;;;;3.56;80.68;102112.28;5135689;27;20179;-66
2022/11/27 04:01:08;;;;;;;6.03;5.60;;;;;;;3.50;80.58;102102.72;5135907;27;20168;-66
2022/11/27 04:03:35;;;;;;;7.17;6.57;;;;;;;3.50;80.94;102097.41;5135522;27;20200;-67
2022/11/27 04:06:02;;;;;;;5.90;5.53;;;;;;;3.49;81.24;102090.34;5135779;27;20645;-67
2022/11/27 04:08:28;;;;;;;6.17;5.60;;;;;;;3.52;81.48;102081.47;5135383;27;20194;-67
2022/11/27 04:10:55;;;;;;;7.07;6.53;;;;;;;3.48;81.74;102061.28;5135405;27;20189;-67
2022/11/27 04:13:21;;;;;;;6.87;6.57;;;;;;;3.53;82.01;102064.69;5135741;27;20681;-67
2022/11/27 04:15:48;;;;;;;7.10;6.57;;;;;;;3.54;81.32;102064.63;5135606;27;20519;-67
2022/11/27 04:18:14;;;;;;;6.67;6.37;;;;;;;3.54;81.41;102067.28;5135546;27;20241;-67
2022/11/27 04:20:40;;;;;;;9.83;9.03;;;;;;;3.57;82.34;102059.31;5135500;27;20203;-67
2022/11/27 04:23:07;;;;;;;8.03;7.33;;;;;;;3.60;82.20;102051.28;5135787;27;20203;-67
2022/11/27 04:25:33;;;;;;;8.90;6.00;;;;;;;3.63;81.68;102045.91;5135148;27;20249;-67
2022/11/27 04:28:00;;;;;;;5.80;5.57;;;;;;;3.62;81.23;102041.53;5135341;27;20177;-67
2022/11/27 04:30:26;;;;;;;6.17;5.57;;;;;;;3.66;81.44;102036.16;5135307;27;20191;-67
2022/11/27 04:32:52;;;;;;;7.13;6.63;;;;;;;3.76;80.89;102037.69;5134810;27;20207;-67
2022/11/27 04:35:19;;;;;;;8.37;7.53;;;;;;;3.74;81.47;102035.09;5134916;27;20196;-67
2022/11/27 04:37:45;;;;;;;7.70;6.77;;;;;;;3.79;81.21;102035.84;5134903;27;20676;-67
2022/11/27 04:40:12;;;;;;;6.33;6.03;;;;;;;3.87;80.66;102035.69;5135146;27;20194;-67
2022/11/27 04:42:38;;;;;;;7.83;6.13;;;;;;;3.92;81.22;102036.44;5134853;27;20190;-67
2022/11/27 04:45:05;;;;;;;6.47;5.97;;;;;;;3.96;80.62;102024.88;5135042;27;20186;-67
2022/11/27 04:47:31;;;;;;;9.53;6.07;;;;;;;3.99;80.59;102019.50;5134735;27;20184;-67
2022/11/27 04:49:58;;;;;;;9.90;8.90;;;;;;;3.93;79.96;102010.84;5134785;27;20183;-66
2022/11/27 04:52:24;;;;;;;15.10;9.00;;;;;;;4.01;79.43;102016.81;5134869;27;20209;-66
2022/11/27 04:54:50;;;;;;;12.63;7.33;;;;;;;4.01;79.09;102016.81;5134548;27;20214;-67
2022/11/27 04:57:25;;;;;;;7.50;6.87;;;;;;;4.01;80.12;102014.16;5135166;27;20224;-67
2022/11/27 04:59:51;;;;;;;11.37;8.10;;;;;;;4.08;80.03;101999.84;5134559;27;20654;-67
2022/11/27 05:02:17;;;;;;;12.13;8.17;;;;;;;4.05;79.58;101992.84;5134533;27;20187;-67
2022/11/27 05:04:44;;;;;;;9.60;8.70;;;;;;;4.05;79.30;101991.97;5134466;27;20666;-67
2022/11/27 05:07:10;;;;;;;9.77;8.77;;;;;;;4.08;79.18;101989.25;5134445;27;20185;-67
2022/11/27 05:09:37;;;;;;;8.43;7.63;;;;;;;4.14;79.50;101986.47;5134949;27;20184;-66
2022/11/27 05:12:03;;;;;;;7.53;6.93;;;;;;;4.21;79.39;101988.06;5134873;27;20188;-66
2022/11/27 05:14:30;;;;;;;14.23;7.37;;;;;;;4.22;78.67;101984.47;5134290;27;20204;-67
2022/11/27 05:16:57;;;;;;;10.20;8.13;;;;;;;4.33;78.39;101981.53;5134582;27;20192;-67
2022/11/27 05:19:26;;;;;;;7.70;7.10;;;;;;;4.42;78.16;101993.72;5134062;27;20654;-67
2022/11/27 05:21:53;;;;;;;7.43;6.90;;;;;;;4.45;77.82;101986.56;5134218;27;20197;-67
2022/11/27 05:24:23;;;;;;;8.50;6.87;;;;;;;4.50;77.09;101985.53;5134476;27;20551;-67
2022/11/27 05:26:49;;;;;;;9.83;5.90;;;;;;;4.53;77.34;101982.84;5134499;28;20186;-66
2022/11/27 05:29:17;;;;;;;7.13;6.00;;;;;;;4.55;77.39;101973.03;5134220;28;20184;-66
2022/11/27 05:31:43;;;;;;;5.83;5.53;;;;;;;4.54;77.41;101977.47;5134466;28;20188;-66
2022/11/27 05:34:10;;;;;;;6.07;5.40;;;;;;;4.59;76.95;101969.38;5134000;28;20220;-67
2022/11/27 05:36:37;;;;;;;6.30;6.00;;;;;;;4.62;77.04;101970.19;5134147;28;20191;-66
2022/11/27 05:39:05;;;;;;;6.50;5.87;;;;;;;4.69;76.05;101974.41;5134375;28;20624;-66
2022/11/27 05:41:33;;;;;;;6.53;6.10;;;;;;;4.81;75.93;101974.97;5134113;28;20180;-66
2022/11/27 05:43:59;;;;;;;5.80;5.47;;;;;;;4.80;75.77;101970.59;5134584;28;20200;-67
2022/11/27 05:46:26;;;;;;;5.97;5.77;;;;;;;4.83;75.74;101970.50;5134041;28;20185;-67
2022/11/27 05:48:52;;;;;;;6.57;6.07;;;;;;;4.83;75.31;101975.81;5134029;28;20595;-67
2022/11/27 05:51:18;;;;;;;6.70;6.30;;;;;;;4.86;74.76;101970.41;5134267;28;20203;-67
2022/11/27 05:53:45;;;;;;;7.03;6.63;;;;;;;4.80;75.43;101974.13;5133852;28;20208;-67
2022/11/27 05:56:14;;;;;;;10.07;6.00;;;;;;;4.87;74.66;101961.53;5134477;28;20205;-67
2022/11/27 05:58:42;;;;;;;9.20;7.73;;;;;;;4.89;74.71;101963.25;5133928;28;20185;-67
2022/11/27 06:01:10;;;;;;;8.13;7.43;;;;;;;4.93;74.48;101955.19;5133892;28;20195;-67
2022/11/27 06:03:37;;;;;;;16.73;5.73;;;;;;;4.96;73.19;101952.47;5133809;28;20279;-67
2022/11/27 06:06:13;;;;;;;8.37;6.50;;;;;;;5.07;73.38;101953.00;5134448;28;20175;-67
2022/11/27 06:08:40;;;;;;;10.57;6.60;;;;;;;5.10;72.88;101955.59;5134371;28;20184;-67
2022/11/27 06:11:09;;;;;;;6.73;6.37;;;;;;;5.13;72.33;101947.53;5133790;28;20195;-67
2022/11/27 06:13:36;;;;;;;7.70;5.80;;;;;;;5.17;71.85;101943.88;5133929;28;20215;-67
2022/11/27 06:16:09;;;;;;;6.67;5.87;;;;;;;5.31;71.12;101946.09;5133765;28;20180;-67
2022/11/27 06:18:36;;;;;;;6.00;5.60;;;;;;;5.34;70.77;101946.03;5134045;28;20230;-67
2022/11/27 06:21:07;;;;;;;6.43;6.03;;;;;;;5.35;70.59;101936.25;5133517;28;20197;-67
2022/11/27 06:23:34;;;;;;;6.60;5.53;;;;;;;5.37;70.67;101934.44;5133866;28;20570;-67
2022/11/27 06:26:12;;;;;;;5.90;5.77;;;;;;;5.33;70.80;101934.50;5133640;28;20195;-67
2022/11/27 06:28:39;;;;;;;5.87;5.43;;;;;;;5.35;69.85;101938.91;5133706;28;20545;-67
2022/11/27 06:31:12;;;;;;;5.97;5.70;;;;;;;5.44;69.96;101942.16;5134032;27;20666;-66
2022/11/27 06:33:43;;;;;;;5.53;5.23;;;;;;;5.48;69.67;101937.59;5137411;27;20295;-67
2022/11/27 06:36:10;;;;;;;6.43;5.73;;;;;;;5.47;69.91;101928.78;5137224;27;20674;-67
2022/11/27 06:38:37;;;;;;;6.63;6.13;;;;;;;5.56;69.54;101924.13;5137253;27;20184;-67
2022/11/27 06:41:10;;;;;;;7.93;5.93;;;;;;;5.57;69.20;101937.31;5137169;27;20193;-67
2022/11/27 06:43:36;;;;;;;6.00;5.60;;;;;;;5.61;69.25;101928.34;5137383;27;20557;-66
2022/11/27 06:46:05;;;;;;;6.73;6.13;;;;;;;5.59;69.62;101922.22;5137118;27;20261;-66
2022/11/27 06:48:32;;;;;;;7.90;6.20;;;;;;;5.63;69.58;101925.66;5137041;27;20190;-66
2022/11/27 06:51:04;;;;;;;6.97;6.23;;;;;;;5.73;68.66;101922.63;5136994;27;20181;-66
2022/11/27 06:53:33;;;;;;;8.33;5.47;;;;;;;5.77;68.82;101923.44;5137065;27;20231;-67
2022/11/27 06:56:02;;;;;;;6.07;5.77;;;;;;;5.81;68.54;101922.38;5136923;27;20180;-67
2022/11/27 06:58:28;;;;;;;5.77;5.40;;;;;;;5.88;68.30;101915.09;5136910;27;20658;-67
2022/11/27 07:00:58;;;;;;;8.77;4.60;;;;;;;5.85;68.43;101916.06;5137079;27;20584;-67
2022/11/27 07:03:25;;;;;;;5.97;5.43;;;;;;;5.85;68.56;101915.19;5137218;27;20215;-67
2022/11/27 07:05:51;;;;;;;9.13;5.57;;;;;;;5.94;68.80;101904.28;5136734;27;20187;-67
2022/11/27 07:08:18;;;;;;;6.00;5.40;;;;;;;5.97;68.35;101894.41;5136674;27;20191;-67
2022/11/27 07:10:44;;;;;;;7.60;6.30;;;;;;;5.97;67.87;101906.84;5136943;27;20199;-67
2022/11/27 07:13:10;;;;;;;6.07;5.73;;;;;;;6.00;67.97;101912.03;5136434;27;20227;-67
2022/11/27 07:15:37;;;;;;;5.80;5.30;;;;;;;6.02;68.10;101902.22;5136799;27;20190;-67
2022/11/27 07:18:03;;;;;;;7.07;5.50;;;;;;;6.05;68.31;101891.47;5136955;27;20185;-67
2022/11/27 07:20:30;;;;;;;5.93;5.53;;;;;;;6.03;68.46;101892.47;5136365;27;20216;-67
2022/11/27 07:22:57;;;;;;;6.27;5.77;;;;;;;6.03;68.58;101881.81;5136359;27;20218;-67
2022/11/27 07:25:23;;;;;;;5.80;5.50;;;;;;;6.00;69.12;101877.47;5136854;27;20184;-67
2022/11/27 07:27:49;;;;;;;5.33;5.13;;;;;;;6.02;68.92;101878.28;5136803;27;20192;-67
2022/11/27 07:30:16;;;;;;;8.20;6.57;;;;;;;6.06;68.77;101868.44;5136228;27;20181;-67
2022/11/27 07:32:42;;;;;;;5.47;5.37;;;;;;;6.13;68.71;101872.59;5135965;27;20523;-67
2022/11/27 07:35:09;;;;;;;7.10;6.23;;;;;;;6.15;68.73;101884.06;5136180;27;20552;-66
2022/11/27 07:37:35;;;;;;;6.97;6.33;;;;;;;6.16;69.09;101872.50;5136361;27;20192;-66
2022/11/27 07:40:01;;;;;;;6.97;4.90;;;;;;;6.15;69.02;101876.06;5136034;27;20181;-66
2022/11/27 07:42:29;;;;;;;9.00;6.07;;;;;;;6.28;67.77;101880.06;5135971;27;20181;-67
2022/11/27 07:45:07;;;;;;;7.10;6.47;;;;;;;6.25;68.12;101885.50;5136203;27;20213;-67
2022/11/27 07:47:33;;;;;;;6.43;5.93;;;;;;;6.26;68.33;101873.06;5136494;27;20206;-67
2022/11/27 07:50:00;;;;;;;8.63;5.90;;;;;;;6.24;68.32;101873.09;5136122;27;20665;-67
2022/11/27 07:52:26;;;;;;;7.60;6.83;;;;;;;6.27;68.43;101872.13;5135808;27;20177;-67
2022/11/27 07:54:53;;;;;;;6.20;5.90;;;;;;;6.25;69.04;101869.53;5135619;27;20216;-67
2022/11/27 07:57:19;;;;;;;7.80;7.07;;;;;;;6.30;69.06;101864.91;5135978;27;20216;-67
2022/11/27 07:59:46;;;;;;;6.27;5.83;;;;;;;6.27;69.28;101862.34;5135940;27;20194;-67
2022/11/27 08:02:13;;;;;;;7.23;6.50;;;;;;;6.29;68.98;101863.16;5135894;27;20199;-67
2022/11/27 08:04:39;;;;;;;6.77;6.27;;;;;;;6.29;69.35;101849.84;5135528;27;20203;-67
2022/11/27 08:07:06;;;;;;;6.70;6.30;;;;;;;6.31;69.14;101847.16;5135782;27;20191;-67
2022/11/27 08:09:32;;;;;;;7.53;7.13;;;;;;;6.33;69.57;101843.50;5135498;27;20181;-67
2022/11/27 08:11:59;;;;;;;7.27;6.53;;;;;;;6.45;69.00;101847.53;5135959;27;20176;-67
2022/11/27 08:14:25;;;;;;;6.93;6.53;;;;;;;6.46;68.67;101853.72;5135989;27;20523;-67
2022/11/27 08:16:51;;;;;;;7.30;6.67;;;;;;;6.50;68.90;101845.56;5135568;27;20193;-67
2022/11/27 08:19:18;;;;;;;9.60;7.20;;;;;;;6.58;69.02;101850.59;5135253;27;20263;-67
2022/11/27 08:21:44;;;;;;;15.90;11.13;;;;;;;6.65;68.70;101832.59;5135160;27;20201;-67
2022/11/27 08:24:11;;;;;;;11.77;9.90;;;;;;;6.63;69.00;101823.81;5135442;27;20218;-67
2022/11/27 08:26:38;;;;;;;8.03;7.37;;;;;;;6.67;68.99;101834.28;5135103;27;20190;-67
2022/11/27 08:29:05;;;;;;;6.73;6.30;;;;;;;6.70;68.76;101828.84;5135079;27;20185;-67
2022/11/27 08:31:32;;;;;;;8.20;6.17;;;;;;;6.68;69.73;101820.06;5135313;27;20188;-67
2022/11/27 08:33:59;;;;;;;6.40;6.10;;;;;;;6.71;69.26;101825.25;5135078;27;20208;-67
2022/11/27 08:36:26;;;;;;;6.27;6.07;;;;;;;6.78;69.48;101823.25;5135225;27;20183;-67
2022/11/27 08:38:53;;;;;;;15.87;9.27;;;;;;;6.81;69.07;101823.97;5134924;27;20193;-67
2022/11/27 08:41:20;;;;;;;7.37;6.77;;;;;;;6.85;68.95;101822.06;5135093;27;20193;-67
2022/11/27 08:43:46;;;;;;;6.27;5.90;;;;;;;6.95;68.87;101812.78;5135050;27;20199;-66
2022/11/27 08:46:12;;;;;;;6.07;5.73;;;;;;;7.00;69.29;101815.28;5134744;27;20185;-66
2022/11/27 08:48:40;;;;;;;6.80;6.30;;;;;;;7.09;68.61;101828.25;5134713;27;20192;-66
2022/11/27 08:51:10;;;;;;;6.33;5.67;;;;;;;7.15;68.89;101819.13;5134689;27;20190;-67
2022/11/27 08:53:37;;;;;;;6.47;6.07;;;;;;;7.17;69.36;101814.59;5134492;27;20208;-67
2022/11/27 08:56:10;;;;;;;8.50;6.60;;;;;;;7.22;68.95;101816.16;5134429;27;20186;-66
2022/11/27 08:58:37;;;;;;;7.30;6.67;;;;;;;7.32;68.13;101815.78;5134901;27;20180;-66
2022/11/27 09:01:07;;;;;;;7.03;6.70;;;;;;;7.34;67.85;101814.78;5134773;27;20276;-66
2022/11/27 09:03:34;;;;;;;8.47;7.63;;;;;;;7.43;68.08;101811.75;5134468;27;20211;-67
2022/11/27 09:06:00;;;;;;;5.93;5.33;;;;;;;7.46;67.37;101811.63;5134499;27;20192;-67
2022/11/27 09:08:27;;;;;;;7.30;6.73;;;;;;;7.48;66.67;101816.03;5134389;27;20193;-67
2022/11/27 09:10:53;;;;;;;10.73;7.10;;;;;;;7.53;66.49;101806.03;5134338;27;20191;-67
2022/11/27 09:13:19;;;;;;;5.93;5.60;;;;;;;7.60;66.54;101805.72;5134244;27;20219;-67
2022/11/27 09:15:46;;;;;;;5.60;5.20;;;;;;;7.71;66.95;101799.94;5134336;27;20195;-67
2022/11/27 09:18:12;;;;;;;5.43;5.33;;;;;;;7.71;64.92;101799.06;5134812;27;20184;-67
2022/11/27 09:20:38;;;;;;;6.23;4.73;;;;;;;7.75;64.69;101796.19;5134174;27;20203;-67
2022/11/27 09:23:05;;;;;;;7.37;5.50;;;;;;;7.84;62.85;101795.81;5134468;27;20577;-67
2022/11/27 09:25:38;;;;;;;4.97;4.87;;;;;;;7.86;63.27;101790.41;5134580;27;20226;-67
2022/11/27 09:28:04;;;;;;;4.20;3.97;;;;;;;7.88;63.24;101792.09;5134226;28;20673;-67
2022/11/27 09:30:31;;;;;;;5.70;5.30;;;;;;;7.95;62.20;101792.69;5134199;28;20194;-67
2022/11/27 09:32:57;;;;;;;3.80;3.77;;;;;;;7.98;61.67;101787.22;5134933;28;20181;-67
2022/11/27 09:35:23;;;;;;;4.63;4.37;;;;;;;8.00;60.79;101785.34;5134322;28;20214;-67
2022/11/27 09:37:50;;;;;;;4.97;4.50;;;;;;;8.03;60.43;101787.88;5134343;28;20264;-66
2022/11/27 09:40:16;;;;;;;4.53;4.50;;;;;;;8.08;60.28;101779.66;5134321;28;20199;-66
2022/11/27 09:42:51;;;;;;;5.37;5.03;;;;;;;8.16;59.58;101776.66;5133885;28;20729;-67
2022/11/27 09:45:17;;;;;;;5.93;5.10;;;;;;;8.21;59.90;101778.19;5134311;28;20610;-67
2022/11/27 09:48:12;;;;;;;4.83;4.73;;;;;;;8.30;58.90;101775.09;5134553;28;20187;-66
2022/11/27 09:50:48;;;;;;;4.70;4.40;;;;;;;8.43;58.16;101775.44;5131521;28;20209;-66
2022/11/27 09:53:32;;;;;;;3.83;3.73;;;;;;;8.44;58.96;101768.28;5134263;28;20222;-66
2022/11/27 09:56:05;;;;;;;5.03;4.73;;;;;;;8.58;57.54;101765.00;5134229;28;20173;-66
2022/11/27 09:58:41;;;;;;;4.60;4.30;;;;;;;8.60;58.08;101768.47;5134293;28;20165;-66
2022/11/27 10:01:12;;;;;;;4.10;4.00;;;;;;;8.67;57.60;101769.91;5134160;28;20641;-66
2022/11/27 10:03:42;;;;;;;4.20;3.80;;;;;;;8.75;56.92;101764.19;5133975;28;20207;-66
2022/11/27 10:06:27;;;;;;;4.27;4.17;;;;;;;8.79;56.60;101765.75;5134292;27;20189;-66
2022/11/27 10:09:14;;;;;;;4.37;4.07;;;;;;;8.88;56.26;101765.31;5138235;27;20183;-66
2022/11/27 10:12:04;;;;;;;4.67;4.57;;;;;;;9.00;56.15;101766.53;5138140;27;20173;-66
2022/11/27 10:14:48;;;;;;;3.73;3.50;;;;;;;9.00;55.44;101758.53;5123388;27;20228;-66
2022/11/27 10:17:26;;;;;;;4.30;3.93;;;;;;;9.01;56.17;101760.28;5138269;27;20183;-66
2022/11/27 10:20:22;;;;;;;3.90;3.73;;;;;;;9.03;54.88;101753.91;5137754;27;20541;-66
2022/11/27 10:23:07;;;;;;;4.30;4.00;;;;;;;9.06;55.54;101764.44;5137548;27;20196;-66
2022/11/27 10:25:39;;;;;;;4.07;3.97;;;;;;;9.07;55.59;101759.97;5119880;27;20169;-66
2022/11/27 10:28:28;;;;;;;4.60;4.50;;;;;;;9.07;55.71;101752.81;5137798;27;20177;-66
2022/11/27 10:31:01;;;;;;;4.20;4.10;;;;;;;9.08;55.67;101738.53;5138092;27;20263;-66
2022/11/27 10:34:03;;;;;;;4.30;4.03;;;;;;;9.23;54.40;101736.88;5137832;27;20211;-67
2022/11/27 10:36:43;;;;;;;6.53;4.23;;;;;;;9.24;55.38;101746.66;5120110;27;20218;-67
2022/11/27 10:39:33;;;;;;;4.17;3.97;;;;;;;9.22;55.11;101734.28;5137587;27;20176;-67
2022/11/27 10:42:09;;;;;;;4.27;4.17;;;;;;;9.26;55.32;101744.75;5137218;27;20173;-67
2022/11/27 10:44:51;;;;;;;4.70;4.50;;;;;;;9.27;56.01;101742.97;5137414;27;20199;-67
2022/11/27 10:47:21;;;;;;;5.07;4.87;;;;;;;9.28;56.23;101740.19;5137748;27;20191;-67
2022/11/27 10:49:48;;;;;;;4.00;3.90;;;;;;;9.27;55.85;101737.63;5137325;27;20168;-67
2022/11/27 10:52:17;;;;;;;4.80;4.50;;;;;;;9.33;55.22;101724.78;5137305;27;20207;-67
2022/11/27 10:54:49;;;;;;;4.00;3.73;;;;;;;9.35;55.11;101722.91;5136845;27;20204;-67
2022/11/27 10:57:46;;;;;;;4.23;4.13;;;;;;;9.35;55.09;101706.00;5137188;27;20172;-67
2022/11/27 11:00:23;;;;;;;3.90;3.80;;;;;;;9.30;54.64;101698.22;5137177;27;20180;-67
2022/11/27 11:03:02;;;;;;;4.43;4.23;;;;;;;9.28;55.68;101702.75;5137011;27;20615;-67
2022/11/27 11:05:29;;;;;;;4.00;3.90;;;;;;;9.34;55.44;101721.19;5137058;27;20164;-66
2022/11/27 11:08:18;;;;;;;4.57;4.30;;;;;;;9.39;54.83;101694.22;5136913;27;20593;-66
2022/11/27 11:10:50;;;;;;;4.77;4.57;;;;;;;9.31;54.99;101697.28;5136918;27;20191;-67
2022/11/27 11:13:20;;;;;;;4.30;4.07;;;;;;;9.20;54.77;101690.75;5136787;27;20580;-67
2022/11/27 11:16:09;;;;;;;7.20;4.37;;;;;;;9.19;55.12;101684.53;5137039;27;20552;-67
2022/11/27 11:18:51;;;;;;;4.30;4.00;;;;;;;9.25;55.13;101686.03;5136067;27;20192;-67
2022/11/27 11:21:31;;;;;;;4.37;4.17;;;;;;;9.27;54.46;101671.66;5136238;27;20657;-67
2022/11/27 11:24:11;;;;;;;5.30;4.40;;;;;;;9.26;55.05;101669.91;5136158;27;20207;-67
2022/11/27 11:26:42;;;;;;;4.97;4.83;;;;;;;9.30;53.91;101666.13;5118510;27;20177;-66
2022/11/27 11:29:30;;;;;;;4.83;4.53;;;;;;;9.20;56.24;101650.66;5136238;27;20169;-66
2022/11/27 11:32:02;;;;;;;4.10;3.90;;;;;;;9.30;55.71;101652.78;5136293;27;20184;-67
2022/11/27 11:34:30;;;;;;;4.13;4.03;;;;;;;9.22;54.83;101648.75;5136154;27;20204;-67
2022/11/27 11:37:00;;;;;;;6.40;4.13;;;;;;;9.22;56.20;101633.59;5136086;27;20177;-67
2022/11/27 11:39:33;;;;;;;4.77;4.57;;;;;;;9.19;55.90;101630.22;5136077;27;20179;-67
2022/11/27 11:42:08;;;;;;;5.37;5.17;;;;;;;9.15;56.35;101627.69;5136629;27;20179;-67
2022/11/27 11:44:37;;;;;;;6.47;5.90;;;;;;;9.16;57.80;101618.72;5136235;27;20214;-67
2022/11/27 11:47:04;;;;;;;7.40;6.80;;;;;;;9.08;58.85;101610.25;5118063;27;20184;-67
2022/11/27 11:49:34;;;;;;;5.33;4.97;;;;;;;9.12;57.73;101601.16;5136473;27;20177;-67
2022/11/27 11:52:25;;;;;;;4.67;4.40;;;;;;;9.08;57.35;101594.22;5135836;27;20185;-67